TUV weather

Tucupita Airport
Tucupita, Delta Amacuro, Venezuela

Public forecast

Using degrees Celsius for public forecast. Weather courtesy of forecast.io.

METAR (pilot weather report)

Report is more than 6 hours old.

Closest report is General Manuel Carlos Piar International Airport, 62.2 nm (115.3 km) SW. Retrieved 2016/04/05 16:00 UTC (3 years ago):

SVPR 051600Z 02008KT 9999 BKN020 XX/XX Q1016

TAF (pilot weather forecast)

Closest forecast is Piarco International Airport, 100.9 nm (186.9 km) NNE. Retrieved 2019/09/21 06:23 UTC (1 hour ago):

TAF TTPP 210400Z 2106/2206 00000KT 9999 FEW016 TEMPO 2107/2202 8000 SHRA FEW012CB SCT015 BECMG 2110/2112 13015KT SCT018 PROB40 TEMPO 2115/2122 VRB15G25KT 4000 TSRA FEW010CB BKN014 BECMG 2200/2202 14005KT FEW016